createdAt,value
2018-11-11T00:01:25.158Z,14.80
2018-11-11T00:03:53.595Z,14.50
2018-11-11T00:06:21.992Z,16.23
2018-11-11T00:08:50.440Z,14.70
2018-11-11T00:11:18.599Z,14.33
2018-11-11T00:13:46.731Z,15.10
2018-11-11T00:16:14.988Z,13.03
2018-11-11T00:18:43.105Z,12.57
2018-11-11T00:21:11.269Z,16.80
2018-11-11T00:23:39.660Z,10.70
2018-11-11T00:26:07.848Z,14.70
2018-11-11T00:28:36.120Z,11.90
2018-11-11T00:31:04.267Z,24.23
2018-11-11T00:33:32.472Z,16.70
2018-11-11T00:36:00.635Z,22.63
2018-11-11T00:38:28.815Z,14.53
2018-11-11T00:40:57.003Z,14.37
2018-11-11T00:43:25.179Z,10.90
2018-11-11T00:45:53.401Z,8.23
2018-11-11T00:48:21.607Z,7.60
2018-11-11T00:50:49.802Z,11.00
2018-11-11T00:53:20.587Z,10.17
2018-11-11T00:55:49.223Z,14.53
2018-11-11T00:58:17.585Z,11.73
2018-11-11T01:00:45.760Z,6.30
2018-11-11T01:03:14.083Z,7.67
2018-11-11T01:05:42.308Z,7.73
2018-11-11T01:08:10.483Z,14.33
2018-11-11T01:10:39.272Z,11.68
2018-11-11T01:13:07.425Z,9.97
2018-11-11T01:15:35.631Z,9.00
2018-11-11T01:18:03.845Z,6.20
2018-11-11T01:20:32.451Z,6.33
2018-11-11T01:23:00.592Z,6.40
2018-11-11T01:25:28.783Z,6.77
2018-11-11T01:27:56.976Z,6.20
2018-11-11T01:30:25.386Z,4.37
2018-11-11T01:32:53.748Z,6.47
2018-11-11T01:35:22.403Z,5.83
2018-11-11T01:37:50.524Z,3.87
2018-11-11T01:40:18.719Z,4.80
2018-11-11T01:42:46.857Z,7.20
2018-11-11T01:45:17.509Z,9.73
2018-11-11T01:47:46.402Z,6.87
2018-11-11T01:50:14.692Z,4.30
2018-11-11T01:52:42.848Z,3.47
2018-11-11T01:55:12.088Z,8.30
2018-11-11T01:57:41.113Z,6.70
2018-11-11T02:00:12.500Z,7.13
2018-11-11T02:02:41.165Z,7.97
2018-11-11T02:05:10.583Z,12.13
2018-11-11T02:07:38.838Z,8.57
2018-11-11T02:10:07.859Z,13.60
2018-11-11T02:12:36.029Z,6.80
2018-11-11T02:15:04.277Z,13.20
2018-11-11T02:17:32.480Z,18.25
2018-11-11T02:20:00.663Z,14.33
2018-11-11T02:22:28.933Z,10.90
2018-11-11T02:24:57.063Z,8.27
2018-11-11T02:27:25.353Z,7.87
2018-11-11T02:29:53.615Z,6.43
2018-11-11T02:32:21.953Z,5.80
2018-11-11T02:34:50.185Z,5.50
2018-11-11T02:37:18.378Z,6.10
2018-11-11T02:39:46.697Z,6.40
2018-11-11T02:42:14.944Z,6.70
2018-11-11T02:44:43.075Z,5.13
2018-11-11T02:47:11.421Z,5.43
2018-11-11T02:49:39.604Z,6.17
2018-11-11T02:52:07.813Z,4.78
2018-11-11T02:54:36.064Z,5.30
2018-11-11T02:57:04.269Z,8.80
2018-11-11T02:59:32.434Z,5.77
2018-11-11T03:02:00.667Z,7.83
2018-11-11T03:04:28.975Z,7.00
2018-11-11T03:06:57.122Z,4.20
2018-11-11T03:09:25.343Z,4.37
2018-11-11T03:11:53.576Z,6.30
2018-11-11T03:14:21.726Z,4.33
2018-11-11T03:16:49.920Z,8.53
2018-11-11T03:19:18.156Z,7.30
2018-11-11T03:21:46.437Z,8.70
2018-11-11T03:24:14.707Z,7.17
2018-11-11T03:26:42.886Z,12.70
2018-11-11T03:29:11.215Z,10.70
2018-11-11T03:31:39.464Z,8.17
2018-11-11T03:34:07.689Z,14.40
2018-11-11T03:36:35.988Z,14.83
2018-11-11T03:39:05.863Z,9.90
2018-11-11T03:41:34.080Z,10.73
2018-11-11T03:44:02.250Z,9.47
2018-11-11T03:46:30.403Z,14.20
2018-11-11T03:48:58.629Z,13.93
2018-11-11T03:51:26.774Z,7.47
2018-11-11T03:53:54.963Z,11.27
2018-11-11T03:56:23.166Z,9.10
2018-11-11T03:58:51.388Z,11.73
2018-11-11T04:01:19.707Z,8.67
2018-11-11T04:03:48.091Z,7.73
2018-11-11T04:06:16.481Z,10.80
2018-11-11T04:08:45.302Z,11.80
2018-11-11T04:11:13.596Z,8.20
2018-11-11T04:13:41.785Z,9.07
2018-11-11T04:16:10.061Z,9.60
2018-11-11T04:18:38.317Z,9.30
2018-11-11T04:21:06.524Z,8.33
2018-11-11T04:23:34.695Z,9.63
2018-11-11T04:26:02.852Z,12.47
2018-11-11T04:28:31.025Z,13.07
2018-11-11T04:30:59.307Z,11.73
2018-11-11T04:33:27.516Z,11.90
2018-11-11T04:35:55.776Z,8.90
2018-11-11T04:38:23.984Z,7.85
2018-11-11T04:40:52.168Z,13.13
2018-11-11T04:43:20.459Z,8.10
2018-11-11T04:45:48.601Z,9.37
2018-11-11T04:48:17.664Z,9.30
2018-11-11T04:50:45.830Z,5.97
2018-11-11T04:53:13.996Z,8.33
2018-11-11T04:55:42.198Z,9.80
2018-11-11T04:58:10.395Z,9.00
2018-11-11T05:00:38.579Z,7.47
2018-11-11T05:03:06.792Z,5.33
2018-11-11T05:05:35.013Z,9.03
2018-11-11T05:08:03.190Z,7.30
2018-11-11T05:10:31.352Z,6.62
2018-11-11T05:12:59.471Z,5.95
2018-11-11T05:15:27.961Z,5.33
2018-11-11T05:17:56.181Z,5.47
2018-11-11T05:20:24.317Z,6.37
2018-11-11T05:22:52.483Z,6.90
2018-11-11T05:25:20.689Z,8.67
2018-11-11T05:27:49.342Z,6.85
2018-11-11T05:30:17.643Z,3.87
2018-11-11T05:32:45.879Z,6.23
2018-11-11T05:35:14.155Z,5.30
2018-11-11T05:37:43.048Z,9.60
2018-11-11T05:40:12.164Z,4.60
2018-11-11T05:42:40.964Z,4.50
2018-11-11T05:45:10.179Z,6.00
2018-11-11T05:47:38.457Z,5.00
2018-11-11T05:50:08.337Z,4.73
2018-11-11T05:52:36.494Z,7.30
2018-11-11T05:55:05.542Z,5.63
2018-11-11T05:57:33.728Z,5.03
2018-11-11T06:00:01.872Z,6.60
2018-11-11T06:02:30.031Z,5.30
2018-11-11T06:04:58.184Z,5.60
2018-11-11T06:07:26.455Z,6.43
2018-11-11T06:09:54.657Z,3.77
2018-11-11T06:12:22.788Z,4.43
2018-11-11T06:14:51.335Z,6.55
2018-11-11T06:17:19.480Z,3.50
2018-11-11T06:19:47.685Z,3.90
2018-11-11T06:22:15.901Z,7.03
2018-11-11T06:24:44.826Z,6.33
2018-11-11T06:27:13.071Z,4.60
2018-11-11T06:29:41.364Z,4.03
2018-11-11T06:32:09.759Z,3.50
2018-11-11T06:34:37.920Z,3.17
2018-11-11T06:37:06.112Z,3.73
2018-11-11T06:39:34.264Z,3.00
2018-11-11T06:42:02.400Z,5.92
2018-11-11T06:44:30.516Z,3.10
2018-11-11T06:46:58.760Z,6.10
2018-11-11T06:49:27.179Z,4.50
2018-11-11T06:51:55.549Z,4.33
2018-11-11T06:54:23.728Z,4.30
2018-11-11T06:56:51.947Z,3.87
2018-11-11T06:59:20.142Z,3.93
2018-11-11T07:01:48.260Z,4.60
2018-11-11T07:04:16.492Z,3.90
2018-11-11T07:06:44.711Z,5.45
2018-11-11T07:09:12.883Z,2.90
2018-11-11T07:11:41.564Z,3.73
2018-11-11T07:14:09.938Z,6.63
2018-11-11T07:16:38.088Z,4.45
2018-11-11T07:19:06.481Z,3.52
2018-11-11T07:21:34.664Z,4.30
2018-11-11T07:24:02.862Z,4.10
2018-11-11T07:26:31.114Z,2.43
2018-11-11T07:28:59.338Z,3.33
2018-11-11T07:31:27.648Z,4.03
2018-11-11T07:33:55.856Z,2.17
2018-11-11T07:36:24.016Z,4.03
2018-11-11T07:38:52.317Z,4.72
2018-11-11T07:41:20.440Z,3.07
2018-11-11T07:43:48.612Z,3.73
2018-11-11T07:46:17.207Z,2.30
2018-11-11T07:48:45.405Z,3.50
2018-11-11T07:51:13.580Z,2.83
2018-11-11T07:53:41.859Z,9.50
2018-11-11T07:56:10.016Z,3.58
2018-11-11T07:58:38.210Z,4.40
2018-11-11T08:01:06.474Z,4.05
2018-11-11T08:03:34.656Z,3.23
2018-11-11T08:06:02.840Z,2.53
2018-11-11T08:08:31.068Z,2.67
2018-11-11T08:11:10.702Z,2.70
2018-11-11T08:13:38.961Z,4.65
2018-11-11T08:16:07.267Z,5.43
2018-11-11T08:18:35.524Z,5.80
2018-11-11T08:21:03.879Z,4.10
2018-11-11T08:23:32.025Z,3.85
2018-11-11T08:26:00.680Z,4.13
2018-11-11T08:28:28.920Z,8.43
2018-11-11T08:30:57.648Z,8.90
2018-11-11T08:33:25.808Z,8.67
2018-11-11T08:35:53.996Z,4.40
2018-11-11T08:38:22.286Z,5.73
2018-11-11T08:40:50.700Z,5.23
2018-11-11T08:43:18.864Z,3.43
2018-11-11T08:45:47.040Z,4.60
2018-11-11T08:48:15.201Z,4.43
2018-11-11T08:50:43.340Z,4.00
2018-11-11T08:53:11.596Z,4.20
2018-11-11T08:55:39.949Z,5.27
2018-11-11T08:58:08.138Z,3.83
2018-11-11T09:00:36.373Z,4.13
2018-11-11T09:03:04.965Z,4.03
2018-11-11T09:05:33.122Z,4.17
2018-11-11T09:08:01.296Z,5.40
2018-11-11T09:10:29.504Z,4.60
2018-11-11T09:12:58.831Z,3.05
2018-11-11T09:15:27.161Z,3.90
2018-11-11T09:17:55.432Z,2.77
2018-11-11T09:20:23.583Z,3.40
2018-11-11T09:22:51.900Z,3.52
2018-11-11T09:25:20.129Z,4.00
2018-11-11T09:27:48.227Z,2.77
2018-11-11T09:30:16.637Z,3.90
2018-11-11T09:32:44.859Z,4.63
2018-11-11T09:35:13.224Z,3.35
2018-11-11T09:37:41.576Z,3.00
2018-11-11T09:40:10.777Z,3.87
2018-11-11T09:42:38.960Z,3.10
2018-11-11T09:45:09.810Z,4.40
2018-11-11T09:47:38.098Z,2.93
2018-11-11T09:50:08.657Z,4.37
2018-11-11T09:52:36.873Z,2.50
2018-11-11T09:55:05.835Z,3.40
2018-11-11T09:57:34.171Z,2.20
2018-11-11T10:00:02.595Z,2.87
2018-11-11T10:02:30.918Z,2.25
2018-11-11T10:05:04.296Z,2.42
2018-11-11T10:08:35.435Z,2.17
2018-11-11T10:11:08.172Z,2.40
2018-11-11T10:14:12.800Z,2.00
2018-11-11T10:16:45.516Z,2.23
2018-11-11T10:19:17.671Z,1.53
2018-11-11T10:21:56.212Z,1.50
2018-11-11T10:24:30.697Z,1.50
2018-11-11T10:27:04.103Z,3.10
2018-11-11T10:31:40.411Z,4.23
2018-11-11T10:34:18.248Z,2.33
2018-11-11T10:36:53.737Z,1.40
2018-11-11T10:40:31.275Z,1.03
2018-11-11T10:43:03.720Z,1.40
2018-11-11T10:45:37.302Z,1.60
2018-11-11T10:48:07.059Z,1.53
2018-11-11T10:50:46.963Z,4.57
2018-11-11T10:53:15.174Z,1.30
2018-11-11T10:55:43.465Z,1.93
2018-11-11T10:58:11.600Z,1.50
2018-11-11T11:00:45.179Z,1.10
2018-11-11T11:03:18.644Z,1.10
2018-11-11T11:05:46.855Z,1.37
2018-11-11T11:08:15.103Z,1.40
2018-11-11T11:10:43.327Z,1.00
2018-11-11T11:13:11.540Z,1.00
2018-11-11T11:15:39.676Z,1.37
2018-11-11T11:18:07.849Z,1.10
2018-11-11T11:20:36.091Z,2.17
2018-11-11T11:23:04.420Z,1.57
2018-11-11T11:25:32.811Z,2.13
2018-11-11T11:28:01.034Z,0.90
2018-11-11T11:30:29.227Z,1.05
2018-11-11T11:32:57.516Z,0.90
2018-11-11T11:35:25.712Z,2.17
2018-11-11T11:37:53.968Z,1.10
2018-11-11T11:40:22.359Z,6.30
2018-11-11T11:42:50.587Z,0.90
2018-11-11T11:45:18.781Z,1.00
2018-11-11T11:47:46.984Z,0.90
2018-11-11T11:50:15.220Z,1.00
2018-11-11T11:52:43.701Z,0.97
2018-11-11T11:55:12.561Z,4.00
2018-11-11T11:57:41.083Z,4.27
2018-11-11T12:00:11.176Z,1.70
2018-11-11T12:02:39.787Z,0.90
2018-11-11T12:05:08.996Z,1.33
2018-11-11T12:07:37.227Z,2.23
2018-11-11T12:10:07.855Z,1.10
2018-11-11T12:12:36.064Z,1.40
2018-11-11T12:15:08.290Z,1.20
2018-11-11T12:17:36.515Z,1.00
2018-11-11T12:20:09.285Z,0.97
2018-11-11T12:22:38.311Z,0.90
2018-11-11T12:25:07.079Z,1.00
2018-11-11T12:27:36.644Z,1.40
2018-11-11T12:30:05.704Z,1.10
2018-11-11T12:32:34.283Z,4.70
2018-11-11T12:35:02.779Z,0.90
2018-11-11T12:37:30.877Z,2.40
2018-11-11T12:39:59.218Z,2.80
2018-11-11T12:42:27.452Z,1.10
2018-11-11T12:44:55.983Z,1.63
2018-11-11T12:47:24.377Z,1.10
2018-11-11T12:49:52.568Z,0.82
2018-11-11T12:52:20.791Z,1.00
2018-11-11T12:54:49.181Z,1.20
2018-11-11T12:57:17.508Z,1.00
2018-11-11T12:59:45.684Z,1.93
2018-11-11T13:02:14.114Z,1.27
2018-11-11T13:04:42.512Z,2.37
2018-11-11T13:07:10.680Z,1.00
2018-11-11T13:09:38.885Z,2.80
2018-11-11T13:12:07.324Z,1.57
2018-11-11T13:14:35.467Z,1.30
2018-11-11T13:17:03.738Z,1.20
2018-11-11T13:19:31.916Z,1.00
2018-11-11T13:22:00.326Z,1.20
2018-11-11T13:24:28.608Z,3.40
2018-11-11T13:26:56.821Z,1.63
2018-11-11T13:29:25.030Z,1.13
2018-11-11T13:31:53.347Z,1.20
2018-11-11T13:34:21.750Z,1.00
2018-11-11T13:36:50.046Z,1.13
2018-11-11T13:39:18.196Z,0.90
2018-11-11T13:41:46.430Z,3.27
2018-11-11T13:44:14.667Z,1.07
2018-11-11T13:46:43.112Z,1.10
2018-11-11T13:49:11.389Z,12.33
2018-11-11T13:51:39.658Z,1.27
2018-11-11T13:54:07.777Z,0.93
2018-11-11T13:56:37.231Z,1.30
2018-11-11T13:59:05.679Z,1.57
2018-11-11T14:01:34.013Z,1.55
2018-11-11T14:04:02.196Z,1.07
2018-11-11T14:06:30.540Z,1.27
2018-11-11T14:08:58.971Z,2.50
2018-11-11T14:11:27.245Z,0.90
2018-11-11T14:13:55.436Z,1.53
2018-11-11T14:16:23.769Z,1.07
2018-11-11T14:18:52.375Z,1.20
2018-11-11T14:21:20.536Z,0.90
2018-11-11T14:23:48.984Z,1.20
2018-11-11T14:26:17.459Z,1.30
2018-11-11T14:28:45.682Z,1.47
2018-11-11T14:31:13.860Z,1.10
2018-11-11T14:33:42.040Z,1.30
2018-11-11T14:36:10.296Z,1.10
2018-11-11T14:38:38.485Z,0.90
2018-11-11T14:41:06.732Z,1.00
2018-11-11T14:43:35.149Z,1.57
2018-11-11T14:46:03.315Z,2.42
2018-11-11T14:48:31.555Z,1.20
2018-11-11T14:50:59.961Z,1.20
2018-11-11T14:53:28.161Z,1.10
2018-11-11T14:55:56.287Z,0.90
2018-11-11T14:58:25.172Z,1.57
2018-11-11T15:00:53.375Z,1.00
2018-11-11T15:03:21.583Z,1.77
2018-11-11T15:05:49.924Z,0.90
2018-11-11T15:08:18.208Z,2.23
2018-11-11T15:10:46.367Z,1.30
2018-11-11T15:13:16.029Z,1.72
2018-11-11T15:15:44.111Z,3.33
2018-11-11T15:18:12.419Z,1.55
2018-11-11T15:20:41.287Z,1.27
2018-11-11T15:23:10.119Z,1.32
2018-11-11T15:25:38.420Z,1.60
2018-11-11T15:28:11.364Z,1.10
2018-11-11T15:30:43.399Z,1.98
2018-11-11T15:33:12.064Z,1.50
2018-11-11T15:35:40.601Z,1.83
2018-11-11T15:38:09.877Z,2.17
2018-11-11T15:40:38.892Z,2.60
2018-11-11T15:43:07.649Z,2.23
2018-11-11T15:45:36.264Z,2.40
2018-11-11T15:48:06.763Z,1.83
2018-11-11T15:50:35.922Z,1.07
2018-11-11T15:53:06.627Z,1.23
2018-11-11T15:55:36.519Z,1.50
2018-11-11T15:58:04.975Z,1.27
2018-11-11T16:00:34.579Z,1.30
2018-11-11T16:03:02.916Z,1.27
2018-11-11T16:05:31.127Z,4.70
2018-11-11T16:08:00.565Z,2.13
2018-11-11T16:10:30.129Z,1.50
2018-11-11T16:12:58.339Z,1.53
2018-11-11T16:15:28.338Z,2.23
2018-11-11T16:17:58.049Z,2.80
2018-11-11T16:20:27.807Z,1.20
2018-11-11T16:22:57.172Z,2.73
2018-11-11T16:25:25.500Z,1.43
2018-11-11T16:27:53.695Z,1.30
2018-11-11T16:30:25.173Z,2.80
2018-11-11T16:32:54.016Z,3.13
2018-11-11T16:35:23.464Z,1.90
2018-11-11T16:37:51.709Z,2.45
2018-11-11T16:40:22.094Z,2.90
2018-11-11T16:42:50.933Z,1.98
2018-11-11T16:45:20.576Z,2.07
2018-11-11T16:47:48.794Z,2.00
2018-11-11T16:50:20.444Z,8.70
2018-11-11T16:52:49.372Z,3.02
2018-11-11T16:55:18.979Z,2.20
2018-11-11T16:57:47.086Z,3.70
2018-11-11T17:00:16.663Z,5.30
2018-11-11T17:02:45.396Z,3.90
2018-11-11T17:05:16.019Z,6.60
2018-11-11T17:07:44.737Z,4.50
2018-11-11T17:10:15.148Z,7.35
2018-11-11T17:12:44.396Z,7.22
2018-11-11T17:15:14.708Z,3.55
2018-11-11T17:17:43.757Z,4.08
2018-11-11T17:22:48.802Z,4.57
2018-11-11T17:25:17.869Z,3.90
2018-11-11T17:27:46.630Z,3.67
2018-11-11T17:30:17.933Z,7.60
2018-11-11T17:32:46.958Z,5.58
2018-11-11T17:35:15.242Z,6.30
2018-11-11T17:37:44.461Z,5.20
2018-11-11T17:40:14.852Z,8.07
2018-11-11T17:42:44.304Z,2.67
2018-11-11T17:45:12.787Z,2.60
2018-11-11T17:47:41.589Z,2.53
2018-11-11T17:50:14.187Z,2.12
2018-11-11T17:52:42.678Z,2.80
2018-11-11T17:55:12.310Z,4.00
2018-11-11T17:57:40.798Z,2.37
2018-11-11T18:00:10.419Z,2.87
2018-11-11T18:02:38.701Z,3.03
2018-11-11T18:05:07.811Z,3.00
2018-11-11T18:07:36.181Z,2.80
2018-11-11T18:10:05.380Z,3.30
2018-11-11T18:12:33.532Z,2.53
2018-11-11T18:15:01.802Z,3.80
2018-11-11T18:17:29.966Z,2.00
2018-11-11T18:19:58.263Z,2.35
2018-11-11T18:22:26.512Z,4.30
2018-11-11T18:24:54.708Z,5.10
2018-11-11T18:27:23.009Z,4.30
2018-11-11T18:29:51.058Z,6.27
2018-11-11T18:32:19.240Z,5.23
2018-11-11T18:34:47.736Z,3.77
2018-11-11T18:37:16.951Z,4.60
2018-11-11T18:39:45.264Z,4.17
2018-11-11T18:42:13.507Z,5.00
2018-11-11T18:44:41.627Z,2.83
2018-11-11T18:47:09.839Z,5.87
2018-11-11T18:49:38.167Z,3.63
2018-11-11T18:52:06.334Z,3.80
2018-11-11T18:54:34.563Z,3.85
2018-11-11T18:57:02.797Z,3.87
2018-11-11T18:59:30.946Z,2.73
2018-11-11T19:02:03.979Z,2.57
2018-11-11T19:04:32.159Z,2.30
2018-11-11T19:07:00.420Z,3.23
2018-11-11T19:09:28.650Z,2.93
2018-11-11T19:11:56.864Z,4.60
2018-11-11T19:14:25.015Z,4.53
2018-11-11T19:16:53.187Z,3.77
2018-11-11T19:19:21.442Z,6.40
2018-11-11T19:21:49.770Z,2.95
2018-11-11T19:24:19.171Z,6.12
2018-11-11T19:26:47.421Z,6.03
2018-11-11T19:29:15.773Z,7.57
2018-11-11T19:31:44.099Z,6.30
2018-11-11T19:34:12.227Z,3.72
2018-11-11T19:36:40.628Z,2.95
2018-11-11T19:39:10.549Z,3.20
2018-11-11T19:41:39.306Z,4.13
2018-11-11T19:44:07.629Z,3.33
2018-11-11T19:46:36.131Z,5.20
2018-11-11T19:49:04.370Z,3.20
2018-11-11T19:51:32.596Z,3.10
2018-11-11T19:54:00.876Z,4.00
2018-11-11T19:56:29.059Z,3.33
2018-11-11T19:58:57.374Z,3.13
2018-11-11T20:01:25.607Z,5.30
2018-11-11T20:03:54.144Z,2.80
2018-11-11T20:06:22.313Z,2.30
2018-11-11T20:08:50.456Z,3.10
2018-11-11T20:11:18.670Z,2.52
2018-11-11T20:13:46.836Z,2.40
2018-11-11T20:16:15.045Z,3.20
2018-11-11T20:18:43.243Z,2.90
2018-11-11T20:21:11.391Z,3.77
2018-11-11T20:23:39.863Z,4.27
2018-11-11T20:26:08.188Z,3.13
2018-11-11T20:28:36.521Z,2.83
2018-11-11T20:31:04.968Z,3.35
2018-11-11T20:33:33.915Z,3.50
2018-11-11T20:36:02.142Z,3.37
2018-11-11T20:38:30.234Z,3.97
2018-11-11T20:40:58.376Z,5.20
2018-11-11T20:43:26.648Z,4.23
2018-11-11T20:45:55.569Z,3.30
2018-11-11T20:48:23.761Z,5.50
2018-11-11T20:50:52.283Z,3.83
2018-11-11T20:53:20.526Z,3.83
2018-11-11T20:55:48.662Z,3.87
2018-11-11T20:58:16.875Z,4.65
2018-11-11T21:00:45.087Z,4.30
2018-11-11T21:03:13.307Z,2.87
2018-11-11T21:05:41.548Z,3.40
2018-11-11T21:08:09.699Z,5.37
2018-11-11T21:10:37.836Z,5.60
2018-11-11T21:13:06.124Z,3.90
2018-11-11T21:15:34.491Z,3.97
2018-11-11T21:18:02.765Z,4.63
2018-11-11T21:20:32.204Z,3.83
2018-11-11T21:23:00.501Z,2.90
2018-11-11T21:25:28.844Z,3.40
2018-11-11T21:27:57.522Z,5.65
2018-11-11T21:30:26.920Z,3.57
2018-11-11T21:32:55.127Z,4.07
2018-11-11T21:35:23.400Z,2.87
2018-11-11T21:37:51.679Z,2.60
2018-11-11T21:40:20.980Z,2.90
2018-11-11T21:42:50.046Z,2.80
2018-11-11T21:45:19.424Z,3.63
2018-11-11T21:47:47.904Z,2.60
2018-11-11T21:50:19.252Z,3.17
2018-11-11T21:52:52.513Z,2.47
2018-11-11T21:55:20.862Z,2.53
2018-11-11T21:57:49.326Z,2.37
2018-11-11T22:02:39.220Z,2.57
2018-11-11T22:05:09.033Z,2.40
2018-11-11T22:07:37.656Z,2.25
2018-11-11T22:10:08.012Z,2.33
2018-11-11T22:12:36.244Z,2.53
2018-11-11T22:15:04.763Z,4.50
2018-11-11T22:17:33.087Z,3.47
2018-11-11T22:20:01.457Z,2.07
2018-11-11T22:22:29.847Z,2.53
2018-11-11T22:24:58.734Z,2.25
2018-11-11T22:27:27.028Z,3.93
2018-11-11T22:29:55.183Z,2.27
2018-11-11T22:32:23.416Z,3.33
2018-11-11T22:34:51.655Z,3.50
2018-11-11T22:37:19.816Z,2.30
2018-11-11T22:39:48.106Z,3.00
2018-11-11T22:42:16.391Z,3.23
2018-11-11T22:44:44.505Z,2.30
2018-11-11T22:47:12.740Z,2.80
2018-11-11T22:49:40.904Z,4.13
2018-11-11T22:52:09.272Z,3.67
2018-11-11T22:54:37.480Z,3.70
2018-11-11T22:57:05.792Z,4.53
2018-11-11T22:59:34.042Z,3.17
2018-11-11T23:02:02.220Z,4.60
2018-11-11T23:04:30.343Z,3.87
2018-11-11T23:06:58.475Z,2.80
2018-11-11T23:09:26.779Z,3.92
2018-11-11T23:11:54.915Z,3.73
2018-11-11T23:14:23.140Z,3.30
2018-11-11T23:16:51.331Z,3.50
2018-11-11T23:19:19.502Z,3.67
2018-11-11T23:21:47.793Z,2.60
2018-11-11T23:24:15.946Z,3.33
2018-11-11T23:26:44.636Z,3.00
2018-11-11T23:29:12.767Z,2.40
2018-11-11T23:31:40.934Z,2.70
2018-11-11T23:34:09.140Z,8.40
2018-11-11T23:36:37.290Z,2.90
2018-11-11T23:39:07.527Z,2.13
2018-11-11T23:41:35.957Z,2.70
2018-11-11T23:44:04.214Z,3.10
2018-11-11T23:46:32.374Z,3.50
2018-11-11T23:49:01.044Z,3.47
2018-11-11T23:51:29.175Z,3.67
2018-11-11T23:53:57.484Z,2.60
2018-11-11T23:56:25.669Z,2.50
2018-11-11T23:58:53.972Z,3.50
